sensor_id;sensor_type;location;lat;lon;timestamp;temperature;humidity
23681;DHT22;62915;50.832;4.462;2024-03-22T00:01:50;14.00;99.90
23681;DHT22;62915;50.832;4.462;2024-03-22T00:04:16;14.00;99.90
23681;DHT22;62915;50.832;4.462;2024-03-22T00:06:43;14.00;99.90
23681;DHT22;62915;50.832;4.462;2024-03-22T00:09:10;14.00;99.90
23681;DHT22;62915;50.832;4.462;2024-03-22T00:11:36;14.00;99.90
23681;DHT22;62915;50.832;4.462;2024-03-22T00:14:02;14.00;99.90
23681;DHT22;62915;50.832;4.462;2024-03-22T00:16:28;14.00;99.90
23681;DHT22;62915;50.832;4.462;2024-03-22T00:18:54;14.00;99.90
23681;DHT22;62915;50.832;4.462;2024-03-22T00:21:22;14.00;99.90
23681;DHT22;62915;50.832;4.462;2024-03-22T00:23:48;14.10;99.90
23681;DHT22;62915;50.832;4.462;2024-03-22T00:26:14;14.20;99.90
23681;DHT22;62915;50.832;4.462;2024-03-22T00:28:41;14.10;99.90
23681;DHT22;62915;50.832;4.462;2024-03-22T00:31:08;13.90;99.90
23681;DHT22;62915;50.832;4.462;2024-03-22T00:33:34;13.90;99.90
23681;DHT22;62915;50.832;4.462;2024-03-22T00:36:00;14.10;99.90
23681;DHT22;62915;50.832;4.462;2024-03-22T00:38:27;14.00;99.90
23681;DHT22;62915;50.832;4.462;2024-03-22T00:40:54;14.00;99.90
23681;DHT22;62915;50.832;4.462;2024-03-22T00:43:20;14.00;99.90
23681;DHT22;62915;50.832;4.462;2024-03-22T00:45:47;14.10;99.90
23681;DHT22;62915;50.832;4.462;2024-03-22T00:48:13;14.00;99.90
23681;DHT22;62915;50.832;4.462;2024-03-22T00:50:39;14.00;99.90
23681;DHT22;62915;50.832;4.462;2024-03-22T00:53:04;14.00;99.90
23681;DHT22;62915;50.832;4.462;2024-03-22T00:55:32;14.00;99.90
23681;DHT22;62915;50.832;4.462;2024-03-22T00:57:58;14.10;99.90
23681;DHT22;62915;50.832;4.462;2024-03-22T01:00:24;14.10;99.90
23681;DHT22;62915;50.832;4.462;2024-03-22T01:02:50;14.10;99.90
23681;DHT22;62915;50.832;4.462;2024-03-22T01:05:16;14.10;99.90
23681;DHT22;62915;50.832;4.462;2024-03-22T01:07:42;14.00;99.90
23681;DHT22;62915;50.832;4.462;2024-03-22T01:10:08;14.00;99.90
23681;DHT22;62915;50.832;4.462;2024-03-22T01:12:34;13.90;99.90
23681;DHT22;62915;50.832;4.462;2024-03-22T01:15:00;13.90;99.90
23681;DHT22;62915;50.832;4.462;2024-03-22T01:17:26;13.80;99.90
23681;DHT22;62915;50.832;4.462;2024-03-22T01:19:52;13.90;99.90
23681;DHT22;62915;50.832;4.462;2024-03-22T01:22:18;13.80;99.90
23681;DHT22;62915;50.832;4.462;2024-03-22T01:24:44;13.80;99.90
23681;DHT22;62915;50.832;4.462;2024-03-22T01:27:11;13.70;99.90
23681;DHT22;62915;50.832;4.462;2024-03-22T01:29:36;13.80;99.90
23681;DHT22;62915;50.832;4.462;2024-03-22T01:32:03;14.00;99.90
23681;DHT22;62915;50.832;4.462;2024-03-22T01:34:29;13.90;99.90
23681;DHT22;62915;50.832;4.462;2024-03-22T01:36:55;14.00;99.90
23681;DHT22;62915;50.832;4.462;2024-03-22T01:39:22;13.80;99.90
23681;DHT22;62915;50.832;4.462;2024-03-22T01:41:49;13.80;99.90
23681;DHT22;62915;50.832;4.462;2024-03-22T01:44:17;13.80;99.90
23681;DHT22;62915;50.832;4.462;2024-03-22T01:46:43;13.70;99.90
23681;DHT22;62915;50.832;4.462;2024-03-22T01:49:10;13.60;99.90
23681;DHT22;62915;50.832;4.462;2024-03-22T01:51:39;13.70;99.90
23681;DHT22;62915;50.832;4.462;2024-03-22T01:54:08;13.70;99.90
23681;DHT22;62915;50.832;4.462;2024-03-22T01:56:38;13.60;99.90
23681;DHT22;62915;50.832;4.462;2024-03-22T01:59:05;13.50;99.90
23681;DHT22;62915;50.832;4.462;2024-03-22T02:01:32;13.60;99.90
23681;DHT22;62915;50.832;4.462;2024-03-22T02:03:58;13.60;99.90
23681;DHT22;62915;50.832;4.462;2024-03-22T02:06:24;13.50;99.90
23681;DHT22;62915;50.832;4.462;2024-03-22T02:08:50;13.50;99.90
23681;DHT22;62915;50.832;4.462;2024-03-22T02:11:16;13.60;99.90
23681;DHT22;62915;50.832;4.462;2024-03-22T02:13:42;13.50;99.90
23681;DHT22;62915;50.832;4.462;2024-03-22T02:16:12;13.50;99.90
23681;DHT22;62915;50.832;4.462;2024-03-22T02:18:37;13.50;99.90
23681;DHT22;62915;50.832;4.462;2024-03-22T02:21:03;13.40;99.90
23681;DHT22;62915;50.832;4.462;2024-03-22T02:23:33;13.40;99.90
23681;DHT22;62915;50.832;4.462;2024-03-22T02:25:59;13.40;99.90
23681;DHT22;62915;50.832;4.462;2024-03-22T02:28:28;13.50;99.90
23681;DHT22;62915;50.832;4.462;2024-03-22T02:30:54;13.40;99.90
23681;DHT22;62915;50.832;4.462;2024-03-22T02:33:20;13.30;99.90
23681;DHT22;62915;50.832;4.462;2024-03-22T02:35:49;13.30;99.90
23681;DHT22;62915;50.832;4.462;2024-03-22T02:38:15;13.40;99.90
23681;DHT22;62915;50.832;4.462;2024-03-22T02:40:43;13.50;99.90
23681;DHT22;62915;50.832;4.462;2024-03-22T02:43:09;13.40;99.90
23681;DHT22;62915;50.832;4.462;2024-03-22T02:45:35;13.20;99.90
23681;DHT22;62915;50.832;4.462;2024-03-22T02:48:01;13.10;99.90
23681;DHT22;62915;50.832;4.462;2024-03-22T02:50:27;13.20;99.90
23681;DHT22;62915;50.832;4.462;2024-03-22T02:52:54;13.30;99.90
23681;DHT22;62915;50.832;4.462;2024-03-22T02:55:19;13.20;99.90
23681;DHT22;62915;50.832;4.462;2024-03-22T02:57:45;13.20;99.90
23681;DHT22;62915;50.832;4.462;2024-03-22T03:00:11;13.30;99.90
23681;DHT22;62915;50.832;4.462;2024-03-22T03:02:37;13.30;99.90
23681;DHT22;62915;50.832;4.462;2024-03-22T03:05:03;13.30;99.90
23681;DHT22;62915;50.832;4.462;2024-03-22T03:07:29;13.20;99.90
23681;DHT22;62915;50.832;4.462;2024-03-22T03:09:55;13.30;99.90
23681;DHT22;62915;50.832;4.462;2024-03-22T03:12:22;13.30;99.90
23681;DHT22;62915;50.832;4.462;2024-03-22T03:14:48;13.20;99.90
23681;DHT22;62915;50.832;4.462;2024-03-22T03:17:13;13.10;99.90
23681;DHT22;62915;50.832;4.462;2024-03-22T03:19:39;13.20;99.90
23681;DHT22;62915;50.832;4.462;2024-03-22T03:22:05;13.10;99.90
23681;DHT22;62915;50.832;4.462;2024-03-22T03:24:31;13.20;99.90
23681;DHT22;62915;50.832;4.462;2024-03-22T03:26:57;13.30;99.90
23681;DHT22;62915;50.832;4.462;2024-03-22T03:29:22;13.20;99.90
23681;DHT22;62915;50.832;4.462;2024-03-22T03:31:48;13.30;99.90
23681;DHT22;62915;50.832;4.462;2024-03-22T03:34:14;13.20;99.90
23681;DHT22;62915;50.832;4.462;2024-03-22T03:36:40;13.20;99.90
23681;DHT22;62915;50.832;4.462;2024-03-22T03:39:06;13.10;99.90
23681;DHT22;62915;50.832;4.462;2024-03-22T03:41:32;13.10;99.90
23681;DHT22;62915;50.832;4.462;2024-03-22T03:43:58;13.20;99.90
23681;DHT22;62915;50.832;4.462;2024-03-22T03:46:23;13.30;99.90
23681;DHT22;62915;50.832;4.462;2024-03-22T03:48:49;13.30;99.90
23681;DHT22;62915;50.832;4.462;2024-03-22T03:51:15;13.40;99.90
23681;DHT22;62915;50.832;4.462;2024-03-22T03:53:41;13.30;99.90
23681;DHT22;62915;50.832;4.462;2024-03-22T03:56:07;13.30;99.90
23681;DHT22;62915;50.832;4.462;2024-03-22T03:58:32;13.20;99.90
23681;DHT22;62915;50.832;4.462;2024-03-22T04:00:58;13.20;99.90
23681;DHT22;62915;50.832;4.462;2024-03-22T04:03:24;13.10;99.90
23681;DHT22;62915;50.832;4.462;2024-03-22T04:05:59;13.10;99.90
23681;DHT22;62915;50.832;4.462;2024-03-22T04:08:25;13.10;99.90
23681;DHT22;62915;50.832;4.462;2024-03-22T04:10:55;13.00;99.90
23681;DHT22;62915;50.832;4.462;2024-03-22T04:13:25;13.10;99.90
23681;DHT22;62915;50.832;4.462;2024-03-22T04:15:52;13.00;99.90
23681;DHT22;62915;50.832;4.462;2024-03-22T04:18:17;13.10;99.90
23681;DHT22;62915;50.832;4.462;2024-03-22T04:20:56;13.00;99.90
23681;DHT22;62915;50.832;4.462;2024-03-22T04:23:23;13.10;99.90
23681;DHT22;62915;50.832;4.462;2024-03-22T04:25:55;13.10;99.90
23681;DHT22;62915;50.832;4.462;2024-03-22T04:28:21;13.00;99.90
23681;DHT22;62915;50.832;4.462;2024-03-22T04:30:58;13.00;99.90
23681;DHT22;62915;50.832;4.462;2024-03-22T04:33:24;13.00;99.90
23681;DHT22;62915;50.832;4.462;2024-03-22T04:35:51;13.00;99.90
23681;DHT22;62915;50.832;4.462;2024-03-22T04:38:17;13.10;99.90
23681;DHT22;62915;50.832;4.462;2024-03-22T04:40:43;13.10;99.90
23681;DHT22;62915;50.832;4.462;2024-03-22T04:43:09;13.00;99.90
23681;DHT22;62915;50.832;4.462;2024-03-22T04:45:34;12.90;99.90
23681;DHT22;62915;50.832;4.462;2024-03-22T04:48:04;12.80;99.90
23681;DHT22;62915;50.832;4.462;2024-03-22T04:50:30;12.90;99.90
23681;DHT22;62915;50.832;4.462;2024-03-22T04:52:56;13.00;99.90
23681;DHT22;62915;50.832;4.462;2024-03-22T04:55:22;12.90;99.90
23681;DHT22;62915;50.832;4.462;2024-03-22T04:57:48;12.90;99.90
23681;DHT22;62915;50.832;4.462;2024-03-22T05:00:15;12.90;99.90
23681;DHT22;62915;50.832;4.462;2024-03-22T05:02:41;12.80;99.90
23681;DHT22;62915;50.832;4.462;2024-03-22T05:05:07;12.80;99.90
23681;DHT22;62915;50.832;4.462;2024-03-22T05:07:34;12.80;99.90
23681;DHT22;62915;50.832;4.462;2024-03-22T05:09:59;12.80;99.90
23681;DHT22;62915;50.832;4.462;2024-03-22T05:12:25;12.80;99.90
23681;DHT22;62915;50.832;4.462;2024-03-22T05:14:51;12.90;99.90
23681;DHT22;62915;50.832;4.462;2024-03-22T05:17:17;12.80;99.90
23681;DHT22;62915;50.832;4.462;2024-03-22T05:19:42;12.90;99.90
23681;DHT22;62915;50.832;4.462;2024-03-22T05:22:08;12.90;99.90
23681;DHT22;62915;50.832;4.462;2024-03-22T05:24:34;12.90;99.90
23681;DHT22;62915;50.832;4.462;2024-03-22T05:27:00;12.70;99.90
23681;DHT22;62915;50.832;4.462;2024-03-22T05:29:27;12.80;99.90
23681;DHT22;62915;50.832;4.462;2024-03-22T05:31:54;12.80;99.90
23681;DHT22;62915;50.832;4.462;2024-03-22T05:34:20;12.80;99.90
23681;DHT22;62915;50.832;4.462;2024-03-22T05:36:46;12.80;99.90
23681;DHT22;62915;50.832;4.462;2024-03-22T05:39:12;12.60;99.90
23681;DHT22;62915;50.832;4.462;2024-03-22T05:41:38;12.60;99.90
23681;DHT22;62915;50.832;4.462;2024-03-22T05:44:04;12.60;99.90
23681;DHT22;62915;50.832;4.462;2024-03-22T05:46:30;12.60;99.90
23681;DHT22;62915;50.832;4.462;2024-03-22T05:48:57;12.50;99.90
23681;DHT22;62915;50.832;4.462;2024-03-22T05:51:27;12.60;99.90
23681;DHT22;62915;50.832;4.462;2024-03-22T05:53:53;12.60;99.90
23681;DHT22;62915;50.832;4.462;2024-03-22T05:56:19;12.50;99.90
23681;DHT22;62915;50.832;4.462;2024-03-22T05:58:45;12.50;99.90
23681;DHT22;62915;50.832;4.462;2024-03-22T06:01:11;12.60;99.90
23681;DHT22;62915;50.832;4.462;2024-03-22T06:03:41;12.60;99.90
23681;DHT22;62915;50.832;4.462;2024-03-22T06:06:27;12.40;99.90
23681;DHT22;62915;50.832;4.462;2024-03-22T06:08:56;12.40;99.90
23681;DHT22;62915;50.832;4.462;2024-03-22T06:11:50;12.40;99.90
23681;DHT22;62915;50.832;4.462;2024-03-22T06:14:17;12.40;99.90
23681;DHT22;62915;50.832;4.462;2024-03-22T06:16:58;12.40;99.90
23681;DHT22;62915;50.832;4.462;2024-03-22T06:19:27;12.30;99.90
23681;DHT22;62915;50.832;4.462;2024-03-22T06:21:53;12.20;99.90
23681;DHT22;62915;50.832;4.462;2024-03-22T06:24:19;12.10;99.90
23681;DHT22;62915;50.832;4.462;2024-03-22T06:26:45;12.10;99.90
23681;DHT22;62915;50.832;4.462;2024-03-22T06:29:10;12.20;99.90
23681;DHT22;62915;50.832;4.462;2024-03-22T06:31:36;12.30;99.90
23681;DHT22;62915;50.832;4.462;2024-03-22T06:34:03;12.20;99.90
23681;DHT22;62915;50.832;4.462;2024-03-22T06:36:38;12.10;99.90
23681;DHT22;62915;50.832;4.462;2024-03-22T06:39:04;12.00;99.90
23681;DHT22;62915;50.832;4.462;2024-03-22T06:41:32;12.00;99.90
23681;DHT22;62915;50.832;4.462;2024-03-22T06:43:58;11.80;99.90
23681;DHT22;62915;50.832;4.462;2024-03-22T06:46:24;11.90;99.90
23681;DHT22;62915;50.832;4.462;2024-03-22T06:48:50;11.90;99.90
23681;DHT22;62915;50.832;4.462;2024-03-22T06:51:16;11.80;99.90
23681;DHT22;62915;50.832;4.462;2024-03-22T06:53:46;11.90;99.90
23681;DHT22;62915;50.832;4.462;2024-03-22T06:56:13;11.90;99.90
23681;DHT22;62915;50.832;4.462;2024-03-22T06:58:43;11.90;99.90
23681;DHT22;62915;50.832;4.462;2024-03-22T07:01:09;12.00;99.90
23681;DHT22;62915;50.832;4.462;2024-03-22T07:03:36;12.00;99.90
23681;DHT22;62915;50.832;4.462;2024-03-22T07:06:05;12.00;99.90
23681;DHT22;62915;50.832;4.462;2024-03-22T07:08:37;12.10;99.90
23681;DHT22;62915;50.832;4.462;2024-03-22T07:11:09;12.00;99.90
23681;DHT22;62915;50.832;4.462;2024-03-22T07:13:36;11.90;99.90
23681;DHT22;62915;50.832;4.462;2024-03-22T07:16:04;11.90;99.90
23681;DHT22;62915;50.832;4.462;2024-03-22T07:18:30;11.90;99.90
23681;DHT22;62915;50.832;4.462;2024-03-22T07:21:13;11.90;99.90
23681;DHT22;62915;50.832;4.462;2024-03-22T07:23:39;11.80;99.90
23681;DHT22;62915;50.832;4.462;2024-03-22T07:26:05;11.90;99.90
23681;DHT22;62915;50.832;4.462;2024-03-22T07:28:33;11.90;99.90
23681;DHT22;62915;50.832;4.462;2024-03-22T07:30:59;11.90;99.90
23681;DHT22;62915;50.832;4.462;2024-03-22T07:33:25;11.90;99.90
23681;DHT22;62915;50.832;4.462;2024-03-22T07:35:51;11.90;99.90
23681;DHT22;62915;50.832;4.462;2024-03-22T07:38:19;11.90;99.90
23681;DHT22;62915;50.832;4.462;2024-03-22T07:40:44;11.90;99.90
23681;DHT22;62915;50.832;4.462;2024-03-22T07:43:17;11.90;99.90
23681;DHT22;62915;50.832;4.462;2024-03-22T07:45:47;12.00;99.90
23681;DHT22;62915;50.832;4.462;2024-03-22T07:48:20;12.10;99.90
23681;DHT22;62915;50.832;4.462;2024-03-22T07:50:58;12.10;99.90
23681;DHT22;62915;50.832;4.462;2024-03-22T07:53:33;12.10;99.90
23681;DHT22;62915;50.832;4.462;2024-03-22T07:55:58;12.00;99.90
23681;DHT22;62915;50.832;4.462;2024-03-22T07:58:32;12.10;99.90
23681;DHT22;62915;50.832;4.462;2024-03-22T08:01:00;12.10;99.90
23681;DHT22;62915;50.832;4.462;2024-03-22T08:03:26;12.10;99.90
23681;DHT22;62915;50.832;4.462;2024-03-22T08:05:53;12.20;99.90
23681;DHT22;62915;50.832;4.462;2024-03-22T08:08:19;12.20;99.90
23681;DHT22;62915;50.832;4.462;2024-03-22T08:10:47;12.20;99.90
23681;DHT22;62915;50.832;4.462;2024-03-22T08:13:13;12.30;99.90
23681;DHT22;62915;50.832;4.462;2024-03-22T08:15:42;12.30;99.90
23681;DHT22;62915;50.832;4.462;2024-03-22T08:18:12;12.30;99.90
23681;DHT22;62915;50.832;4.462;2024-03-22T08:20:38;12.40;99.90
23681;DHT22;62915;50.832;4.462;2024-03-22T08:23:10;12.40;99.90
23681;DHT22;62915;50.832;4.462;2024-03-22T08:25:36;12.30;99.90
23681;DHT22;62915;50.832;4.462;2024-03-22T08:28:02;12.20;99.90
23681;DHT22;62915;50.832;4.462;2024-03-22T08:30:28;12.20;99.90
23681;DHT22;62915;50.832;4.462;2024-03-22T08:32:54;12.20;99.90
23681;DHT22;62915;50.832;4.462;2024-03-22T08:35:20;12.10;99.90
23681;DHT22;62915;50.832;4.462;2024-03-22T08:37:47;12.10;99.90
23681;DHT22;62915;50.832;4.462;2024-03-22T08:40:13;12.20;99.90
23681;DHT22;62915;50.832;4.462;2024-03-22T08:42:40;12.30;99.90
23681;DHT22;62915;50.832;4.462;2024-03-22T08:45:08;12.20;99.90
23681;DHT22;62915;50.832;4.462;2024-03-22T08:47:34;12.20;99.90
23681;DHT22;62915;50.832;4.462;2024-03-22T08:50:03;12.20;99.90
23681;DHT22;62915;50.832;4.462;2024-03-22T08:52:30;12.30;99.90
23681;DHT22;62915;50.832;4.462;2024-03-22T08:54:57;12.40;99.90
23681;DHT22;62915;50.832;4.462;2024-03-22T08:57:23;12.40;99.90
23681;DHT22;62915;50.832;4.462;2024-03-22T08:59:50;12.40;99.90
23681;DHT22;62915;50.832;4.462;2024-03-22T09:02:16;12.50;99.90
23681;DHT22;62915;50.832;4.462;2024-03-22T09:04:42;12.50;99.90
23681;DHT22;62915;50.832;4.462;2024-03-22T09:07:09;12.60;99.90
23681;DHT22;62915;50.832;4.462;2024-03-22T09:09:35;12.50;99.90
23681;DHT22;62915;50.832;4.462;2024-03-22T09:12:22;12.50;99.90
23681;DHT22;62915;50.832;4.462;2024-03-22T09:14:54;12.60;99.90
23681;DHT22;62915;50.832;4.462;2024-03-22T09:17:21;12.70;99.90
23681;DHT22;62915;50.832;4.462;2024-03-22T09:19:47;12.80;99.90
23681;DHT22;62915;50.832;4.462;2024-03-22T09:22:13;12.90;99.90
23681;DHT22;62915;50.832;4.462;2024-03-22T09:24:41;12.80;99.90
23681;DHT22;62915;50.832;4.462;2024-03-22T09:27:07;12.90;99.90
23681;DHT22;62915;50.832;4.462;2024-03-22T09:29:36;12.80;99.90
23681;DHT22;62915;50.832;4.462;2024-03-22T09:32:03;13.00;99.90
23681;DHT22;62915;50.832;4.462;2024-03-22T09:34:33;12.90;99.90
23681;DHT22;62915;50.832;4.462;2024-03-22T09:37:01;13.00;99.90
23681;DHT22;62915;50.832;4.462;2024-03-22T09:39:30;13.00;99.90
23681;DHT22;62915;50.832;4.462;2024-03-22T09:41:59;13.00;99.90
23681;DHT22;62915;50.832;4.462;2024-03-22T09:44:27;13.00;99.90
23681;DHT22;62915;50.832;4.462;2024-03-22T09:46:53;13.10;99.90
23681;DHT22;62915;50.832;4.462;2024-03-22T09:49:22;13.00;99.90
23681;DHT22;62915;50.832;4.462;2024-03-22T09:52:12;13.00;99.90
23681;DHT22;62915;50.832;4.462;2024-03-22T09:55:05;13.10;99.90
23681;DHT22;62915;50.832;4.462;2024-03-22T09:57:51;13.00;99.90
23681;DHT22;62915;50.832;4.462;2024-03-22T10:00:29;13.10;99.90
23681;DHT22;62915;50.832;4.462;2024-03-22T10:03:28;13.20;99.90
23681;DHT22;62915;50.832;4.462;2024-03-22T10:06:29;13.20;99.90
23681;DHT22;62915;50.832;4.462;2024-03-22T10:09:02;13.10;99.90
23681;DHT22;62915;50.832;4.462;2024-03-22T10:11:45;13.00;99.90
23681;DHT22;62915;50.832;4.462;2024-03-22T10:14:42;13.10;99.90
23681;DHT22;62915;50.832;4.462;2024-03-22T10:17:28;13.20;99.90
23681;DHT22;62915;50.832;4.462;2024-03-22T10:20:19;13.10;99.90
23681;DHT22;62915;50.832;4.462;2024-03-22T10:23:13;13.00;99.90
23681;DHT22;62915;50.832;4.462;2024-03-22T10:26:00;13.00;99.90
23681;DHT22;62915;50.832;4.462;2024-03-22T10:28:29;13.10;99.90
23681;DHT22;62915;50.832;4.462;2024-03-22T10:31:15;13.10;99.90
23681;DHT22;62915;50.832;4.462;2024-03-22T10:33:56;13.10;99.90
23681;DHT22;62915;50.832;4.462;2024-03-22T10:36:45;13.00;99.90
23681;DHT22;62915;50.832;4.462;2024-03-22T10:39:19;13.10;99.90
23681;DHT22;62915;50.832;4.462;2024-03-22T10:42:05;13.10;99.90
23681;DHT22;62915;50.832;4.462;2024-03-22T10:44:42;13.10;99.90
23681;DHT22;62915;50.832;4.462;2024-03-22T10:53:58;13.50;99.90
23681;DHT22;62915;50.832;4.462;2024-03-22T10:56:28;13.50;99.90
23681;DHT22;62915;50.832;4.462;2024-03-22T10:59:20;13.50;99.90
23681;DHT22;62915;50.832;4.462;2024-03-22T11:02:17;13.40;99.90
23681;DHT22;62915;50.832;4.462;2024-03-22T11:04:58;13.50;99.90
23681;DHT22;62915;50.832;4.462;2024-03-22T11:07:35;13.50;99.90
23681;DHT22;62915;50.832;4.462;2024-03-22T11:10:09;13.50;99.90
23681;DHT22;62915;50.832;4.462;2024-03-22T11:13:16;13.50;99.90
23681;DHT22;62915;50.832;4.462;2024-03-22T11:16:06;13.50;99.90
23681;DHT22;62915;50.832;4.462;2024-03-22T11:18:41;13.60;99.90
23681;DHT22;62915;50.832;4.462;2024-03-22T11:21:41;13.60;99.90
23681;DHT22;62915;50.832;4.462;2024-03-22T11:24:24;13.70;99.90
23681;DHT22;62915;50.832;4.462;2024-03-22T11:26:50;13.70;99.90
23681;DHT22;62915;50.832;4.462;2024-03-22T11:29:18;13.90;99.90
23681;DHT22;62915;50.832;4.462;2024-03-22T11:31:44;13.80;99.90
23681;DHT22;62915;50.832;4.462;2024-03-22T11:34:44;13.90;99.90
23681;DHT22;62915;50.832;4.462;2024-03-22T11:37:22;14.00;99.90
23681;DHT22;62915;50.832;4.462;2024-03-22T11:40:23;13.90;99.90
23681;DHT22;62915;50.832;4.462;2024-03-22T11:43:09;13.80;99.90
23681;DHT22;62915;50.832;4.462;2024-03-22T11:45:57;13.80;99.90
23681;DHT22;62915;50.832;4.462;2024-03-22T11:48:50;13.80;99.90
23681;DHT22;62915;50.832;4.462;2024-03-22T11:51:48;13.70;99.90
23681;DHT22;62915;50.832;4.462;2024-03-22T11:54:24;13.70;99.90
23681;DHT22;62915;50.832;4.462;2024-03-22T11:57:08;13.50;99.90
23681;DHT22;62915;50.832;4.462;2024-03-22T11:59:43;13.40;99.90
23681;DHT22;62915;50.832;4.462;2024-03-22T12:02:10;13.40;99.90
23681;DHT22;62915;50.832;4.462;2024-03-22T12:04:47;13.50;99.90
23681;DHT22;62915;50.832;4.462;2024-03-22T12:07:35;13.50;99.90
23681;DHT22;62915;50.832;4.462;2024-03-22T12:10:01;13.30;99.90
23681;DHT22;62915;50.832;4.462;2024-03-22T12:12:27;13.40;99.90
23681;DHT22;62915;50.832;4.462;2024-03-22T12:14:53;13.50;99.90
23681;DHT22;62915;50.832;4.462;2024-03-22T12:17:22;13.60;99.90
23681;DHT22;62915;50.832;4.462;2024-03-22T12:19:57;13.70;99.90
23681;DHT22;62915;50.832;4.462;2024-03-22T12:22:25;13.70;99.90
23681;DHT22;62915;50.832;4.462;2024-03-22T12:24:55;13.50;99.90
23681;DHT22;62915;50.832;4.462;2024-03-22T12:27:27;13.50;99.90
23681;DHT22;62915;50.832;4.462;2024-03-22T12:30:06;13.60;99.90
23681;DHT22;62915;50.832;4.462;2024-03-22T12:32:33;13.60;99.90
23681;DHT22;62915;50.832;4.462;2024-03-22T12:34:58;13.40;99.90
23681;DHT22;62915;50.832;4.462;2024-03-22T12:37:26;13.40;99.90
23681;DHT22;62915;50.832;4.462;2024-03-22T12:39:52;13.40;99.90
23681;DHT22;62915;50.832;4.462;2024-03-22T12:42:19;13.40;99.90
23681;DHT22;62915;50.832;4.462;2024-03-22T12:44:46;13.40;99.90
23681;DHT22;62915;50.832;4.462;2024-03-22T12:47:12;13.40;99.90
23681;DHT22;62915;50.832;4.462;2024-03-22T12:49:40;13.50;99.90
23681;DHT22;62915;50.832;4.462;2024-03-22T12:52:07;13.40;99.90
23681;DHT22;62915;50.832;4.462;2024-03-22T12:54:34;13.40;99.90
23681;DHT22;62915;50.832;4.462;2024-03-22T12:57:00;13.50;99.90
23681;DHT22;62915;50.832;4.462;2024-03-22T12:59:30;13.40;99.90
23681;DHT22;62915;50.832;4.462;2024-03-22T13:02:00;13.50;99.90
23681;DHT22;62915;50.832;4.462;2024-03-22T13:04:31;13.50;99.90
23681;DHT22;62915;50.832;4.462;2024-03-22T13:06:59;13.50;99.90
23681;DHT22;62915;50.832;4.462;2024-03-22T13:09:25;13.30;99.90
23681;DHT22;62915;50.832;4.462;2024-03-22T13:11:51;13.30;99.90
23681;DHT22;62915;50.832;4.462;2024-03-22T13:14:25;13.30;99.90
23681;DHT22;62915;50.832;4.462;2024-03-22T13:16:53;13.30;99.90
23681;DHT22;62915;50.832;4.462;2024-03-22T13:19:19;13.30;99.90
23681;DHT22;62915;50.832;4.462;2024-03-22T13:21:46;13.40;99.90
23681;DHT22;62915;50.832;4.462;2024-03-22T13:24:15;13.40;99.90
23681;DHT22;62915;50.832;4.462;2024-03-22T13:26:41;13.40;99.90
23681;DHT22;62915;50.832;4.462;2024-03-22T13:29:07;13.50;99.90
23681;DHT22;62915;50.832;4.462;2024-03-22T13:31:34;13.40;99.90
23681;DHT22;62915;50.832;4.462;2024-03-22T13:33:59;13.40;99.90
23681;DHT22;62915;50.832;4.462;2024-03-22T13:36:27;13.40;99.90
23681;DHT22;62915;50.832;4.462;2024-03-22T13:39:00;13.40;99.90
23681;DHT22;62915;50.832;4.462;2024-03-22T13:41:25;13.30;99.90
23681;DHT22;62915;50.832;4.462;2024-03-22T13:43:51;13.30;99.90
23681;DHT22;62915;50.832;4.462;2024-03-22T13:46:20;13.40;99.90
23681;DHT22;62915;50.832;4.462;2024-03-22T13:48:51;13.50;99.90
23681;DHT22;62915;50.832;4.462;2024-03-22T13:51:16;13.40;99.90
23681;DHT22;62915;50.832;4.462;2024-03-22T13:53:46;13.50;99.90
23681;DHT22;62915;50.832;4.462;2024-03-22T13:56:16;13.40;99.90
23681;DHT22;62915;50.832;4.462;2024-03-22T13:58:42;13.40;99.90
23681;DHT22;62915;50.832;4.462;2024-03-22T14:01:19;13.40;99.90
23681;DHT22;62915;50.832;4.462;2024-03-22T14:03:45;13.40;99.90
23681;DHT22;62915;50.832;4.462;2024-03-22T14:06:13;13.50;99.90
23681;DHT22;62915;50.832;4.462;2024-03-22T14:08:40;13.50;99.90
23681;DHT22;62915;50.832;4.462;2024-03-22T14:11:07;13.50;99.90
23681;DHT22;62915;50.832;4.462;2024-03-22T14:13:55;13.40;99.90
23681;DHT22;62915;50.832;4.462;2024-03-22T14:16:22;13.40;99.90
23681;DHT22;62915;50.832;4.462;2024-03-22T14:19:16;13.40;99.90
23681;DHT22;62915;50.832;4.462;2024-03-22T14:21:58;13.40;99.90
23681;DHT22;62915;50.832;4.462;2024-03-22T14:24:27;13.20;99.90
23681;DHT22;62915;50.832;4.462;2024-03-22T14:26:55;13.30;99.90
23681;DHT22;62915;50.832;4.462;2024-03-22T14:29:21;13.40;99.90
23681;DHT22;62915;50.832;4.462;2024-03-22T14:31:52;13.40;99.90
23681;DHT22;62915;50.832;4.462;2024-03-22T14:34:18;13.40;99.90
23681;DHT22;62915;50.832;4.462;2024-03-22T14:36:44;13.40;99.90
23681;DHT22;62915;50.832;4.462;2024-03-22T14:39:16;13.50;99.90
23681;DHT22;62915;50.832;4.462;2024-03-22T14:42:01;13.40;99.90
23681;DHT22;62915;50.832;4.462;2024-03-22T14:44:48;13.30;99.90
23681;DHT22;62915;50.832;4.462;2024-03-22T14:47:16;13.30;99.90
23681;DHT22;62915;50.832;4.462;2024-03-22T14:50:09;13.30;99.90
23681;DHT22;62915;50.832;4.462;2024-03-22T14:52:38;13.40;99.90
23681;DHT22;62915;50.832;4.462;2024-03-22T14:55:32;13.30;99.90
23681;DHT22;62915;50.832;4.462;2024-03-22T14:57:58;13.20;99.90
23681;DHT22;62915;50.832;4.462;2024-03-22T15:00:23;13.20;99.90
23681;DHT22;62915;50.832;4.462;2024-03-22T15:02:52;13.20;99.90
23681;DHT22;62915;50.832;4.462;2024-03-22T15:05:18;13.20;99.90
23681;DHT22;62915;50.832;4.462;2024-03-22T15:07:44;13.20;99.90
23681;DHT22;62915;50.832;4.462;2024-03-22T15:10:10;13.20;99.90
23681;DHT22;62915;50.832;4.462;2024-03-22T15:12:36;13.30;99.90
23681;DHT22;62915;50.832;4.462;2024-03-22T15:15:02;13.30;99.90
23681;DHT22;62915;50.832;4.462;2024-03-22T15:17:29;13.30;99.90
23681;DHT22;62915;50.832;4.462;2024-03-22T15:19:56;13.20;99.90
23681;DHT22;62915;50.832;4.462;2024-03-22T15:22:22;13.20;99.90
23681;DHT22;62915;50.832;4.462;2024-03-22T15:24:49;13.10;99.90
23681;DHT22;62915;50.832;4.462;2024-03-22T15:27:16;13.10;99.90
23681;DHT22;62915;50.832;4.462;2024-03-22T15:29:41;13.10;99.90
23681;DHT22;62915;50.832;4.462;2024-03-22T15:32:07;13.10;99.90
23681;DHT22;62915;50.832;4.462;2024-03-22T15:34:33;13.10;99.90
23681;DHT22;62915;50.832;4.462;2024-03-22T15:36:59;13.00;99.90
23681;DHT22;62915;50.832;4.462;2024-03-22T15:39:25;12.90;99.90
23681;DHT22;62915;50.832;4.462;2024-03-22T15:41:51;13.00;99.90
23681;DHT22;62915;50.832;4.462;2024-03-22T15:44:18;12.90;99.90
23681;DHT22;62915;50.832;4.462;2024-03-22T15:46:44;13.00;99.90
23681;DHT22;62915;50.832;4.462;2024-03-22T15:49:10;12.90;99.90
23681;DHT22;62915;50.832;4.462;2024-03-22T15:51:36;12.90;99.90
23681;DHT22;62915;50.832;4.462;2024-03-22T15:54:03;12.80;99.90